Time;durP1;ratioP1;P1;durP2;ratioP2;P2;SDS_P1;SDS_P2;PMS_P1;PMS_P2;Temp;Humidity;BMP_temperature;BMP_pressure;BME280_temperature;BME280_humidity;BME280_pressure;Samples;Min_cycle;Max_cycle;Signal;HPM_P1;HPM_P2
2021/12/20 00:01:57;;;;;;;;;;;6.90;99.90;;;;;;5118783;27;20336;-85
2021/12/20 00:04:23;;;;;;;;;;;6.80;99.90;;;;;;5138972;27;19923;-86
2021/12/20 00:06:48;;;;;;;;;;;6.90;99.90;;;;;;5139461;27;19971;-85
2021/12/20 00:09:14;;;;;;;;;;;6.90;99.90;;;;;;5139533;27;19946;-85
2021/12/20 00:11:40;;;;;;;;;;;6.80;99.90;;;;;;5105232;27;20010;-85
2021/12/20 00:14:05;;;;;;;;;;;6.80;99.90;;;;;;5121716;27;20035;-85
2021/12/20 00:16:31;;;;;;;;;;;6.90;99.90;;;;;;5122440;27;19923;-85
2021/12/20 00:18:56;;;;;;;;;;;6.80;99.90;;;;;;5104508;27;19930;-85
2021/12/20 00:21:22;;;;;;;;;;;6.80;99.90;;;;;;5139147;27;20269;-86
2021/12/20 00:23:48;;;;;;;;;;;6.80;99.90;;;;;;5105241;27;19971;-86
2021/12/20 00:26:13;;;;;;;;;;;6.80;99.90;;;;;;5120375;27;19923;-85
2021/12/20 00:28:39;;;;;;;;;;;6.80;99.90;;;;;;5100212;27;19929;-85
2021/12/20 00:31:04;;;;;;;;;;;6.80;99.90;;;;;;5113749;27;19923;-86
2021/12/20 00:33:33;;;;;;;;;;;6.80;99.90;;;;;;5118655;27;19923;-86
2021/12/20 00:36:09;;;;;;;;;;;6.80;99.90;;;;;;5111854;27;19923;-86
2021/12/20 00:41:19;;;;;;;;;;;6.80;99.90;;;;;;5138376;27;19930;-85
2021/12/20 00:43:45;;;;;;;;;;;6.70;99.90;;;;;;5138926;27;19923;-85
2021/12/20 00:46:11;;;;;;;;;;;6.80;99.90;;;;;;5121740;27;20013;-85
2021/12/20 00:48:36;;;;;;;;;;;6.80;99.90;;;;;;5121913;27;19975;-86
2021/12/20 00:51:02;;;;;;;;;;;6.80;99.90;;;;;;5103202;27;19924;-86
2021/12/20 00:53:27;;;;;;;;;;;6.80;99.90;;;;;;5138805;27;20260;-85
2021/12/20 00:55:53;;;;;;;;;;;6.80;99.90;;;;;;5118447;27;19931;-85
2021/12/20 00:58:18;;;;;;;;;;;6.80;99.90;;;;;;5091987;27;19967;-85
2021/12/20 01:00:46;;;;;;;;;;;6.80;99.90;;;;;;5121579;27;20386;-85
2021/12/20 01:03:12;;;;;;;;;;;6.80;99.90;;;;;;5138526;27;19923;-85
2021/12/20 01:05:40;;;;;;;;;;;6.80;99.90;;;;;;5121276;27;20328;-85
2021/12/20 01:08:08;;;;;;;;;;;6.80;99.90;;;;;;5138990;27;19931;-85
2021/12/20 01:10:35;;;;;;;;;;;6.80;99.90;;;;;;5138401;27;19945;-86
2021/12/20 01:13:02;;;;;;;;;;;6.90;99.90;;;;;;5121386;27;19923;-85
2021/12/20 01:15:30;;;;;;;;;;;6.90;99.90;;;;;;5104323;27;19923;-85
2021/12/20 01:17:55;;;;;;;;;;;6.90;99.90;;;;;;5120768;27;19971;-85
2021/12/20 01:20:21;;;;;;;;;;;6.90;99.90;;;;;;5103993;27;19974;-86
2021/12/20 01:22:48;;;;;;;;;;;6.80;99.90;;;;;;5120549;27;19923;-85
2021/12/20 01:25:14;;;;;;;;;;;6.90;99.90;;;;;;5137288;27;20006;-86
2021/12/20 01:27:39;;;;;;;;;;;6.90;99.90;;;;;;5133413;27;20028;-86
2021/12/20 01:30:06;;;;;;;;;;;6.90;99.90;;;;;;5121288;27;20021;-85
2021/12/20 01:32:32;;;;;;;;;;;6.90;99.90;;;;;;5137982;27;19946;-85
2021/12/20 01:34:58;;;;;;;;;;;6.90;99.90;;;;;;5137932;27;19923;-85
2021/12/20 01:37:23;;;;;;;;;;;6.90;99.90;;;;;;5120379;27;19924;-85
2021/12/20 01:39:49;;;;;;;;;;;6.90;99.90;;;;;;5120802;27;19923;-86
2021/12/20 01:42:18;;;;;;;;;;;6.90;99.90;;;;;;5120592;27;19923;-85
2021/12/20 01:44:44;;;;;;;;;;;6.90;99.90;;;;;;5117127;27;19946;-85
2021/12/20 01:47:10;;;;;;;;;;;6.90;99.90;;;;;;5134609;27;20284;-85
2021/12/20 01:49:44;;;;;;;;;;;6.90;99.90;;;;;;5134254;27;19928;-85
2021/12/20 01:52:14;;;;;;;;;;;6.90;99.90;;;;;;5116832;27;19931;-86
2021/12/20 01:54:39;;;;;;;;;;;6.90;99.90;;;;;;5117945;27;20431;-85
2021/12/20 01:57:05;;;;;;;;;;;7.00;99.90;;;;;;5100345;27;20022;-85
2021/12/20 01:59:31;;;;;;;;;;;7.00;99.90;;;;;;5134157;27;19924;-86
2021/12/20 02:01:56;;;;;;;;;;;7.00;99.90;;;;;;5134413;27;19923;-86
2021/12/20 02:04:23;;;;;;;;;;;7.00;99.90;;;;;;5116584;27;19924;-86
2021/12/20 02:06:49;;;;;;;;;;;7.00;99.90;;;;;;5134125;27;20432;-85
2021/12/20 02:09:16;;;;;;;;;;;7.00;99.90;;;;;;5134182;27;19923;-85
2021/12/20 02:11:44;;;;;;;;;;;7.00;99.90;;;;;;5120751;27;20368;-84
2021/12/20 02:14:10;;;;;;;;;;;7.00;99.90;;;;;;5151225;27;19984;-85
2021/12/20 02:16:36;;;;;;;;;;;7.00;99.90;;;;;;5140157;27;19927;-85
2021/12/20 02:19:06;;;;;;;;;;;7.00;99.90;;;;;;5116381;27;19944;-85
2021/12/20 02:21:32;;;;;;;;;;;7.00;99.90;;;;;;5116442;27;19924;-85
2021/12/20 02:23:57;;;;;;;;;;;7.00;99.90;;;;;;5099385;27;19977;-85
2021/12/20 02:26:23;;;;;;;;;;;7.00;99.90;;;;;;5111944;28;19965;-85
2021/12/20 02:28:52;;;;;;;;;;;6.90;99.90;;;;;;5116126;27;20296;-85
2021/12/20 02:39:21;;;;;;;;;;;6.90;99.90;;;;;;5133648;27;20330;-85
2021/12/20 02:41:47;;;;;;;;;;;6.90;99.90;;;;;;5116123;28;19972;-85
2021/12/20 02:44:18;;;;;;;;;;;6.90;99.90;;;;;;5133507;27;19923;-85
2021/12/20 02:49:23;;;;;;;;;;;6.90;99.90;;;;;;5132461;28;20333;-85
2021/12/20 02:51:53;;;;;;;;;;;6.90;99.90;;;;;;5114994;28;19924;-85
2021/12/20 02:54:19;;;;;;;;;;;6.80;99.90;;;;;;5116300;28;19923;-85
2021/12/20 02:56:45;;;;;;;;;;;6.80;99.90;;;;;;5115557;28;19923;-85
2021/12/20 02:59:11;;;;;;;;;;;6.80;99.90;;;;;;5113887;28;19931;-85
2021/12/20 03:01:39;;;;;;;;;;;6.80;99.90;;;;;;5115989;28;20272;-85
2021/12/20 03:04:05;;;;;;;;;;;6.70;99.90;;;;;;5133791;28;19930;-86
2021/12/20 03:06:39;;;;;;;;;;;6.70;99.90;;;;;;5132898;28;19923;-85
2021/12/20 03:09:06;;;;;;;;;;;6.60;99.90;;;;;;5133502;28;19985;-85
2021/12/20 03:11:32;;;;;;;;;;;6.50;99.90;;;;;;5132925;28;19996;-85
2021/12/20 03:14:09;;;;;;;;;;;6.50;99.90;;;;;;5133450;28;20444;-86
2021/12/20 03:16:35;;;;;;;;;;;6.40;99.90;;;;;;5132992;28;19924;-85
2021/12/20 03:19:01;;;;;;;;;;;6.40;99.90;;;;;;5132977;28;19923;-85
2021/12/20 03:21:27;;;;;;;;;;;6.30;99.90;;;;;;5114027;28;19943;-86
2021/12/20 03:23:52;;;;;;;;;;;6.20;99.90;;;;;;5130978;28;20283;-84
2021/12/20 03:26:18;;;;;;;;;;;6.20;99.90;;;;;;5132358;28;19972;-86
2021/12/20 03:28:43;;;;;;;;;;;6.20;99.90;;;;;;5132885;28;19930;-85
2021/12/20 03:31:09;;;;;;;;;;;6.10;99.90;;;;;;5132907;28;19924;-86
2021/12/20 03:33:34;;;;;;;;;;;6.10;99.90;;;;;;5115572;28;19923;-86
2021/12/20 03:36:00;;;;;;;;;;;6.00;99.90;;;;;;5133070;28;19923;-85
2021/12/20 03:38:26;;;;;;;;;;;6.00;99.90;;;;;;5119039;27;20042;-87
2021/12/20 03:40:51;;;;;;;;;;;5.90;99.90;;;;;;5118416;27;19924;-86
2021/12/20 03:43:18;;;;;;;;;;;5.90;99.90;;;;;;5097739;28;20014;-85
2021/12/20 03:45:49;;;;;;;;;;;5.80;99.90;;;;;;5099688;27;19924;-86
2021/12/20 03:48:15;;;;;;;;;;;5.80;99.90;;;;;;5119436;27;19949;-84
2021/12/20 03:50:40;;;;;;;;;;;5.80;99.90;;;;;;5136722;27;19924;-85
2021/12/20 03:53:06;;;;;;;;;;;5.70;99.90;;;;;;5119507;27;19995;-85
2021/12/20 03:55:32;;;;;;;;;;;5.70;99.90;;;;;;5101948;27;19923;-86
2021/12/20 03:57:57;;;;;;;;;;;5.70;99.90;;;;;;5119344;27;19931;-84
2021/12/20 04:00:23;;;;;;;;;;;5.70;99.90;;;;;;5119176;27;19923;-85
2021/12/20 04:02:49;;;;;;;;;;;5.70;99.90;;;;;;5119487;27;20728;-85
2021/12/20 04:05:15;;;;;;;;;;;5.80;99.90;;;;;;5119267;27;19927;-85
2021/12/20 04:07:40;;;;;;;;;;;5.80;99.90;;;;;;5118853;27;19923;-86
2021/12/20 04:10:07;;;;;;;;;;;5.80;99.90;;;;;;5119554;27;20275;-85
2021/12/20 04:12:32;;;;;;;;;;;5.80;99.90;;;;;;5102173;27;20272;-86
2021/12/20 04:14:58;;;;;;;;;;;5.90;99.90;;;;;;5136596;27;19930;-85
2021/12/20 04:17:23;;;;;;;;;;;5.90;99.90;;;;;;5118725;27;19923;-86
2021/12/20 04:19:49;;;;;;;;;;;6.00;99.90;;;;;;5118898;27;19955;-85
2021/12/20 04:22:15;;;;;;;;;;;5.90;99.90;;;;;;5115773;28;20414;-85
2021/12/20 04:24:42;;;;;;;;;;;5.90;99.90;;;;;;5101050;27;20382;-86
2021/12/20 04:27:07;;;;;;;;;;;6.00;99.90;;;;;;5100744;27;20275;-85
2021/12/20 04:29:33;;;;;;;;;;;5.90;99.90;;;;;;5118472;27;19924;-86
2021/12/20 04:31:59;;;;;;;;;;;6.00;99.90;;;;;;5102152;27;19924;-85
2021/12/20 04:34:25;;;;;;;;;;;5.90;99.90;;;;;;5098701;28;19924;-84
2021/12/20 04:36:51;;;;;;;;;;;5.90;99.90;;;;;;5129183;27;19967;-85
2021/12/20 04:39:20;;;;;;;;;;;5.90;99.90;;;;;;5118480;27;20023;-86
2021/12/20 04:41:46;;;;;;;;;;;5.90;99.90;;;;;;5118603;27;19934;-85
2021/12/20 04:44:11;;;;;;;;;;;5.90;99.90;;;;;;5098228;28;19924;-85
2021/12/20 04:46:37;;;;;;;;;;;5.90;99.90;;;;;;5115025;28;19924;-85
2021/12/20 04:49:03;;;;;;;;;;;5.90;99.90;;;;;;5097675;28;19930;-85
2021/12/20 04:51:29;;;;;;;;;;;5.90;99.90;;;;;;5097808;28;20376;-85
2021/12/20 04:53:54;;;;;;;;;;;5.90;99.90;;;;;;5098078;28;19935;-85
2021/12/20 04:56:20;;;;;;;;;;;5.90;99.90;;;;;;5098017;28;19923;-85
2021/12/20 04:58:46;;;;;;;;;;;5.90;99.90;;;;;;5097472;28;19934;-85
2021/12/20 05:01:11;;;;;;;;;;;5.90;99.90;;;;;;5114804;28;19928;-85
2021/12/20 05:03:37;;;;;;;;;;;5.90;99.90;;;;;;5097922;28;19923;-86
2021/12/20 05:06:02;;;;;;;;;;;5.90;99.90;;;;;;5098255;28;19924;-85
2021/12/20 05:08:34;;;;;;;;;;;5.90;99.90;;;;;;5097727;28;19976;-86
2021/12/20 05:11:00;;;;;;;;;;;5.80;99.90;;;;;;5113382;28;20440;-84
2021/12/20 05:13:25;;;;;;;;;;;5.90;99.90;;;;;;5104470;28;19927;-85
2021/12/20 05:15:51;;;;;;;;;;;5.90;99.90;;;;;;5080711;28;19931;-85
2021/12/20 05:18:17;;;;;;;;;;;5.80;99.90;;;;;;5097633;28;19988;-85
2021/12/20 05:20:42;;;;;;;;;;;5.90;99.90;;;;;;5096555;28;20376;-86
2021/12/20 05:23:08;;;;;;;;;;;5.80;99.90;;;;;;5113138;28;19927;-85
2021/12/20 05:25:35;;;;;;;;;;;5.90;99.90;;;;;;5096401;28;19967;-85
2021/12/20 05:28:00;;;;;;;;;;;5.80;99.90;;;;;;5097180;28;20288;-87
2021/12/20 05:30:26;;;;;;;;;;;5.80;99.90;;;;;;5114179;28;19934;-85
2021/12/20 05:32:52;;;;;;;;;;;5.90;99.90;;;;;;5114035;28;19931;-85
2021/12/20 05:35:19;;;;;;;;;;;5.90;99.90;;;;;;5114379;28;20022;-85
2021/12/20 05:37:45;;;;;;;;;;;5.80;99.90;;;;;;5113715;28;19924;-86
2021/12/20 05:40:12;;;;;;;;;;;5.90;99.90;;;;;;5097169;28;20015;-85
2021/12/20 05:42:38;;;;;;;;;;;6.00;99.90;;;;;;5096069;28;20369;-85
2021/12/20 05:45:04;;;;;;;;;;;6.00;99.90;;;;;;5113702;28;19924;-85
2021/12/20 05:47:30;;;;;;;;;;;6.10;99.90;;;;;;5100548;27;20371;-86
2021/12/20 05:49:55;;;;;;;;;;;6.10;99.90;;;;;;5096541;28;19927;-85
2021/12/20 05:52:21;;;;;;;;;;;6.10;99.90;;;;;;5132270;27;20003;-85
2021/12/20 05:54:46;;;;;;;;;;;6.10;99.90;;;;;;5113666;28;19973;-86
2021/12/20 05:57:12;;;;;;;;;;;6.10;99.90;;;;;;5113570;27;19946;-86
2021/12/20 05:59:38;;;;;;;;;;;6.10;99.90;;;;;;5133875;27;20379;-85
2021/12/20 06:02:04;;;;;;;;;;;6.10;99.90;;;;;;5133137;27;20334;-85
2021/12/20 06:04:29;;;;;;;;;;;6.10;99.90;;;;;;5113625;28;20289;-85
2021/12/20 06:06:55;;;;;;;;;;;6.10;99.90;;;;;;5079418;28;19927;-85
2021/12/20 06:09:21;;;;;;;;;;;6.10;99.90;;;;;;5088915;27;20036;-86
2021/12/20 06:11:46;;;;;;;;;;;6.10;99.90;;;;;;5116820;27;19971;-86
2021/12/20 06:14:13;;;;;;;;;;;6.10;99.90;;;;;;5133824;27;19923;-85
2021/12/20 06:16:39;;;;;;;;;;;6.00;99.90;;;;;;5133404;27;20419;-85
2021/12/20 06:19:04;;;;;;;;;;;6.00;99.90;;;;;;5113643;27;20092;-85
2021/12/20 06:21:30;;;;;;;;;;;6.10;99.90;;;;;;5093930;27;19923;-85
2021/12/20 06:23:56;;;;;;;;;;;6.00;99.90;;;;;;5115455;27;20001;-85
2021/12/20 06:26:23;;;;;;;;;;;6.10;99.90;;;;;;5096994;27;19928;-86
2021/12/20 06:28:50;;;;;;;;;;;6.10;99.90;;;;;;5112655;28;19947;-85
2021/12/20 06:31:15;;;;;;;;;;;6.10;99.90;;;;;;5115335;27;19934;-85
2021/12/20 06:33:41;;;;;;;;;;;6.10;99.90;;;;;;5116221;27;19927;-85
2021/12/20 06:36:07;;;;;;;;;;;6.10;99.90;;;;;;5096708;27;19966;-86
2021/12/20 06:38:34;;;;;;;;;;;6.10;99.90;;;;;;5099167;27;19927;-86
2021/12/20 06:41:00;;;;;;;;;;;6.10;99.90;;;;;;5115467;27;19937;-86
2021/12/20 06:43:25;;;;;;;;;;;6.10;99.90;;;;;;5132606;27;20014;-85
2021/12/20 06:45:51;;;;;;;;;;;6.20;99.90;;;;;;5115433;28;19952;-86
2021/12/20 06:48:17;;;;;;;;;;;6.20;99.90;;;;;;5132915;27;19923;-86
2021/12/20 06:50:42;;;;;;;;;;;6.20;99.90;;;;;;5115851;27;20017;-86
2021/12/20 06:53:08;;;;;;;;;;;6.30;99.90;;;;;;5132445;28;19972;-85
2021/12/20 06:55:35;;;;;;;;;;;6.30;99.90;;;;;;5115726;28;19931;-86
2021/12/20 06:58:01;;;;;;;;;;;6.20;99.90;;;;;;5115593;28;19958;-85
2021/12/20 07:00:27;;;;;;;;;;;6.20;99.90;;;;;;5114606;28;19924;-86
2021/12/20 07:02:53;;;;;;;;;;;6.20;99.90;;;;;;5132760;28;20010;-85
2021/12/20 07:05:19;;;;;;;;;;;6.20;99.90;;;;;;5132903;28;20085;-84
2021/12/20 07:07:44;;;;;;;;;;;6.20;99.90;;;;;;5116237;28;19955;-85
2021/12/20 07:10:10;;;;;;;;;;;6.20;99.90;;;;;;5099034;28;19929;-86
2021/12/20 07:12:37;;;;;;;;;;;6.20;99.90;;;;;;5114767;28;19928;-85
2021/12/20 07:15:04;;;;;;;;;;;6.20;99.90;;;;;;5108865;28;19930;-85
2021/12/20 07:17:30;;;;;;;;;;;6.20;99.90;;;;;;5101341;28;19924;-85
2021/12/20 07:19:57;;;;;;;;;;;6.20;99.90;;;;;;5117868;27;19935;-85
2021/12/20 07:22:24;;;;;;;;;;;6.20;99.90;;;;;;5100013;28;19923;-84
2021/12/20 07:24:49;;;;;;;;;;;6.20;99.90;;;;;;5118119;27;19919;-88
2021/12/20 07:27:17;;;;;;;;;;;6.10;99.90;;;;;;5132104;27;19969;-84
2021/12/20 07:29:42;;;;;;;;;;;6.10;99.90;;;;;;5118325;27;19924;-86
2021/12/20 07:32:08;;;;;;;;;;;6.10;99.90;;;;;;5100151;27;19969;-87
2021/12/20 07:34:34;;;;;;;;;;;6.10;99.90;;;;;;5136296;27;20002;-89
2021/12/20 07:36:59;;;;;;;;;;;6.10;99.90;;;;;;5119665;27;19919;-87
2021/12/20 07:39:25;;;;;;;;;;;6.10;99.90;;;;;;5119577;27;19919;-85
2021/12/20 07:41:51;;;;;;;;;;;6.10;99.90;;;;;;5120078;27;19919;-87
2021/12/20 07:44:17;;;;;;;;;;;6.00;99.90;;;;;;5119991;27;19926;-91
2021/12/20 07:46:42;;;;;;;;;;;6.10;99.90;;;;;;5116352;27;19924;-89
2021/12/20 07:49:08;;;;;;;;;;;6.10;99.90;;;;;;5115442;27;19919;-91
2021/12/20 07:51:34;;;;;;;;;;;6.00;99.90;;;;;;5085415;28;19924;-90
2021/12/20 07:53:59;;;;;;;;;;;6.10;99.90;;;;;;5113523;28;19920;-93
2021/12/20 07:56:25;;;;;;;;;;;6.10;99.90;;;;;;5100216;28;20290;-90
2021/12/20 07:58:50;;;;;;;;;;;6.10;99.90;;;;;;5099973;28;19988;-90
2021/12/20 08:01:17;;;;;;;;;;;6.10;99.90;;;;;;5116541;28;19928;-90
2021/12/20 08:03:43;;;;;;;;;;;6.10;99.90;;;;;;5100387;28;20361;-89
2021/12/20 08:06:08;;;;;;;;;;;6.10;99.90;;;;;;5117458;28;19927;-88
2021/12/20 08:08:34;;;;;;;;;;;6.10;99.90;;;;;;5141419;27;19907;-88
2021/12/20 08:11:00;;;;;;;;;;;6.00;99.90;;;;;;5126444;27;19941;-87
2021/12/20 08:13:26;;;;;;;;;;;6.00;99.90;;;;;;5142248;27;20014;-88
2021/12/20 08:15:51;;;;;;;;;;;6.00;99.90;;;;;;5137102;27;19930;-89
2021/12/20 08:18:17;;;;;;;;;;;6.00;99.90;;;;;;5136537;27;19988;-88
2021/12/20 08:20:43;;;;;;;;;;;5.90;99.90;;;;;;5137414;27;19968;-89
2021/12/20 08:23:08;;;;;;;;;;;5.90;99.90;;;;;;5102583;28;20399;-88
2021/12/20 08:25:36;;;;;;;;;;;5.80;99.90;;;;;;5116140;28;19920;-88
2021/12/20 08:28:02;;;;;;;;;;;5.80;99.90;;;;;;5097240;27;19919;-89
2021/12/20 08:30:28;;;;;;;;;;;5.70;99.90;;;;;;5120297;27;19920;-88
2021/12/20 08:32:54;;;;;;;;;;;5.60;99.90;;;;;;5119933;27;19926;-89
2021/12/20 08:35:19;;;;;;;;;;;5.60;99.90;;;;;;5136768;27;19973;-88
2021/12/20 08:37:45;;;;;;;;;;;5.50;99.90;;;;;;5119428;27;20009;-89
2021/12/20 08:40:13;;;;;;;;;;;5.40;99.90;;;;;;5119508;27;19919;-88
2021/12/20 08:42:40;;;;;;;;;;;5.40;99.90;;;;;;5137211;27;19919;-88
2021/12/20 08:45:06;;;;;;;;;;;5.30;99.90;;;;;;5136257;27;19919;-88
2021/12/20 08:47:32;;;;;;;;;;;5.30;99.90;;;;;;5119475;27;19949;-89
2021/12/20 08:50:02;;;;;;;;;;;5.20;99.90;;;;;;5119929;27;19919;-89
2021/12/20 08:52:28;;;;;;;;;;;5.10;99.90;;;;;;5119735;27;19920;-88
2021/12/20 08:54:53;;;;;;;;;;;5.10;99.90;;;;;;5102763;27;19925;-89
2021/12/20 08:57:19;;;;;;;;;;;5.00;99.90;;;;;;5118758;27;19959;-84
2021/12/20 08:59:44;;;;;;;;;;;5.10;99.90;;;;;;5118711;27;19919;-91
2021/12/20 09:02:10;;;;;;;;;;;5.10;99.90;;;;;;5135776;27;19919;-90
2021/12/20 09:04:36;;;;;;;;;;;5.00;99.90;;;;;;5135466;27;20283;-86
2021/12/20 09:07:03;;;;;;;;;;;5.00;99.90;;;;;;5132988;27;19919;-88
2021/12/20 09:09:29;;;;;;;;;;;5.00;99.90;;;;;;5135624;27;19926;-87
2021/12/20 09:11:55;;;;;;;;;;;5.10;99.90;;;;;;5118442;27;19966;-88
2021/12/20 09:14:20;;;;;;;;;;;5.10;99.90;;;;;;5118017;27;19970;-87
2021/12/20 09:16:46;;;;;;;;;;;5.20;99.90;;;;;;5114051;27;19924;-86
2021/12/20 09:19:11;;;;;;;;;;;5.20;99.90;;;;;;5091958;27;19946;-86
2021/12/20 09:21:37;;;;;;;;;;;5.30;99.90;;;;;;5118135;27;19939;-84
2021/12/20 09:24:04;;;;;;;;;;;5.30;99.90;;;;;;5117946;27;19932;-87
2021/12/20 09:26:29;;;;;;;;;;;5.50;99.90;;;;;;5117244;27;20347;-86
2021/12/20 09:28:55;;;;;;;;;;;5.50;99.90;;;;;;5117485;27;19919;-86
2021/12/20 09:31:21;;;;;;;;;;;5.60;99.90;;;;;;5117253;27;19962;-87
2021/12/20 09:33:46;;;;;;;;;;;5.60;99.90;;;;;;5117694;27;20255;-87
2021/12/20 09:36:12;;;;;;;;;;;5.60;99.90;;;;;;5117326;27;19972;-86
2021/12/20 09:38:37;;;;;;;;;;;5.70;99.90;;;;;;5117155;27;19926;-87
2021/12/20 09:43:36;;;;;;;;;;;5.80;99.90;;;;;;5117243;27;19919;-87
2021/12/20 09:46:02;;;;;;;;;;;5.90;99.90;;;;;;5117369;27;19919;-87
2021/12/20 09:48:27;;;;;;;;;;;6.00;99.90;;;;;;5117021;27;19980;-84
2021/12/20 09:50:53;;;;;;;;;;;6.00;99.90;;;;;;5134749;27;20387;-85
2021/12/20 09:53:19;;;;;;;;;;;6.10;99.90;;;;;;5116952;27;19919;-83
2021/12/20 09:55:48;;;;;;;;;;;6.20;99.90;;;;;;5117370;27;19958;-83
2021/12/20 09:58:14;;;;;;;;;;;6.30;99.90;;;;;;5133950;27;19920;-84
2021/12/20 10:00:40;;;;;;;;;;;6.40;99.90;;;;;;5134307;27;19927;-88
2021/12/20 10:03:06;;;;;;;;;;;6.50;99.90;;;;;;5117250;27;20010;-84
2021/12/20 10:05:32;;;;;;;;;;;6.60;99.90;;;;;;5133876;27;19972;-85
2021/12/20 10:08:01;;;;;;;;;;;6.70;99.90;;;;;;5099819;27;19939;-85
2021/12/20 10:10:38;;;;;;;;;;;6.80;99.90;;;;;;5114109;27;19931;-86
2021/12/20 10:13:04;;;;;;;;;;;6.90;99.90;;;;;;5114108;27;20002;-91
2021/12/20 10:15:39;;;;;;;;;;;6.90;99.90;;;;;;5116863;27;20345;-92
2021/12/20 10:18:10;;;;;;;;;;;7.00;99.90;;;;;;5131168;27;19930;-91
2021/12/20 10:20:36;;;;;;;;;;;7.10;99.90;;;;;;5132945;27;20307;-82
2021/12/20 10:23:10;;;;;;;;;;;7.30;99.90;;;;;;5109922;28;19924;-83
2021/12/20 10:25:36;;;;;;;;;;;7.30;99.90;;;;;;5104489;27;20339;-86
2021/12/20 10:28:10;;;;;;;;;;;7.30;99.90;;;;;;5111983;28;19923;-86
2021/12/20 10:30:38;;;;;;;;;;;7.40;99.90;;;;;;5115089;27;20014;-86
2021/12/20 10:33:04;;;;;;;;;;;7.40;99.90;;;;;;5115100;27;20412;-85
2021/12/20 10:35:32;;;;;;;;;;;7.50;99.90;;;;;;5114956;27;20010;-85
2021/12/20 10:37:59;;;;;;;;;;;7.60;99.90;;;;;;5115150;27;20360;-88
2021/12/20 10:40:25;;;;;;;;;;;7.70;99.90;;;;;;5131908;27;20384;-83
2021/12/20 10:42:53;;;;;;;;;;;7.90;99.90;;;;;;5099522;27;19924;-88
2021/12/20 10:45:20;;;;;;;;;;;8.00;99.90;;;;;;5115170;27;19935;-90
2021/12/20 10:47:50;;;;;;;;;;;8.10;99.90;;;;;;5116106;27;19924;-95
2021/12/20 10:50:20;;;;;;;;;;;8.10;99.90;;;;;;5134026;27;19957;-94
2021/12/20 10:52:45;;;;;;;;;;;8.20;99.90;;;;;;5115016;28;19976;-88
2021/12/20 10:55:11;;;;;;;;;;;8.30;99.90;;;;;;5117014;28;19923;-95
2021/12/20 10:57:37;;;;;;;;;;;8.20;99.90;;;;;;5134941;28;19924;-93
2021/12/20 11:00:14;;;;;;;;;;;8.30;99.90;;;;;;5116198;28;19923;-91
2021/12/20 11:03:15;;;;;;;;;;;8.40;99.90;;;;;;5115700;28;19927;-89
2021/12/20 11:05:57;;;;;;;;;;;8.70;99.90;;;;;;5133058;28;19930;-88
2021/12/20 11:11:12;;;;;;;;;;;9.30;99.90;;;;;;5156886;27;19927;-87
2021/12/20 11:13:38;;;;;;;;;;;9.80;99.90;;;;;;5147005;28;19977;-88
2021/12/20 11:16:25;;;;;;;;;;;10.30;99.90;;;;;;5115753;28;19927;-89
2021/12/20 11:19:08;;;;;;;;;;;10.80;99.90;;;;;;5115345;28;19924;-87
2021/12/20 11:21:34;;;;;;;;;;;10.90;99.90;;;;;;5115708;28;19927;-88
2021/12/20 11:24:00;;;;;;;;;;;11.20;99.90;;;;;;5098833;28;19948;-88
2021/12/20 11:26:27;;;;;;;;;;;11.40;99.90;;;;;;5095224;28;20392;-90
2021/12/20 11:28:56;;;;;;;;;;;11.60;99.90;;;;;;5096239;28;19924;-91
2021/12/20 11:31:22;;;;;;;;;;;11.60;99.90;;;;;;5123958;28;19923;-87
2021/12/20 11:33:48;;;;;;;;;;;11.60;99.90;;;;;;5078771;28;19946;-85
2021/12/20 11:36:13;;;;;;;;;;;11.60;99.90;;;;;;5107804;28;20332;-88
2021/12/20 11:38:39;;;;;;;;;;;11.80;99.90;;;;;;5132121;28;19930;-89
2021/12/20 11:41:05;;;;;;;;;;;11.80;99.90;;;;;;5116275;28;19923;-89
2021/12/20 11:43:31;;;;;;;;;;;11.70;99.90;;;;;;5133205;28;20014;-89
2021/12/20 11:45:58;;;;;;;;;;;11.80;99.90;;;;;;5109234;28;20463;-87
2021/12/20 11:48:24;;;;;;;;;;;12.00;99.90;;;;;;5096814;28;19924;-89
2021/12/20 11:50:55;;;;;;;;;;;11.90;99.90;;;;;;5114101;28;19927;-88
2021/12/20 11:53:20;;;;;;;;;;;11.90;99.90;;;;;;5094772;28;19930;-89
2021/12/20 11:55:50;;;;;;;;;;;12.00;99.90;;;;;;5102171;28;19931;-90
2021/12/20 11:58:24;;;;;;;;;;;11.90;99.90;;;;;;5119326;27;19966;-89
2021/12/20 12:00:54;;;;;;;;;;;12.00;99.90;;;;;;5136524;27;19986;-89
2021/12/20 12:03:22;;;;;;;;;;;11.90;99.90;;;;;;5119901;27;19923;-88
2021/12/20 12:05:48;;;;;;;;;;;12.00;99.90;;;;;;5136694;27;20360;-89
2021/12/20 12:08:20;;;;;;;;;;;12.00;99.90;;;;;;5136898;27;19927;-89
2021/12/20 12:10:46;;;;;;;;;;;11.90;99.90;;;;;;5101440;27;20304;-89
2021/12/20 12:13:15;;;;;;;;;;;11.60;99.90;;;;;;5118968;27;19938;-87
2021/12/20 12:16:26;;;;;;;;;;;11.50;99.90;;;;;;5119363;27;20453;-88
2021/12/20 12:18:52;;;;;;;;;;;11.40;99.90;;;;;;5121189;27;19923;-89
2021/12/20 12:21:33;;;;;;;;;;;11.40;99.90;;;;;;5118421;27;19963;-89
2021/12/20 12:24:09;;;;;;;;;;;11.30;99.90;;;;;;5135709;27;19927;-88
2021/12/20 12:26:40;;;;;;;;;;;11.20;99.90;;;;;;5135399;27;19923;-88
2021/12/20 12:29:14;;;;;;;;;;;10.80;99.90;;;;;;5135335;27;19927;-87
2021/12/20 12:32:05;;;;;;;;;;;10.60;99.90;;;;;;5114214;28;20368;-88
2021/12/20 12:34:38;;;;;;;;;;;10.20;99.90;;;;;;5112205;27;20034;-87
2021/12/20 12:37:28;;;;;;;;;;;9.90;99.90;;;;;;5118430;27;20384;-88
2021/12/20 12:40:13;;;;;;;;;;;9.70;99.90;;;;;;5118310;27;19928;-88
2021/12/20 12:42:46;;;;;;;;;;;9.50;99.90;;;;;;5101817;27;19927;-86
2021/12/20 12:45:11;;;;;;;;;;;9.50;99.90;;;;;;5116612;27;19976;-87
2021/12/20 12:47:37;;;;;;;;;;;9.40;99.90;;;;;;5123229;27;19924;-87
2021/12/20 12:50:03;;;;;;;;;;;9.40;99.90;;;;;;5117690;27;19923;-86
2021/12/20 12:52:30;;;;;;;;;;;9.30;99.90;;;;;;5117470;27;19975;-86
2021/12/20 12:55:02;;;;;;;;;;;9.20;99.90;;;;;;5109100;27;19928;-89
2021/12/20 12:57:28;;;;;;;;;;;9.20;99.90;;;;;;5113682;27;19972;-88
2021/12/20 12:59:54;;;;;;;;;;;9.10;99.90;;;;;;5132922;27;20301;-87
2021/12/20 13:02:23;;;;;;;;;;;9.40;99.90;;;;;;5133243;27;20291;-88
2021/12/20 13:04:52;;;;;;;;;;;9.70;99.90;;;;;;5115574;27;20287;-87
2021/12/20 13:07:18;;;;;;;;;;;9.80;99.90;;;;;;5132808;27;19924;-88
2021/12/20 13:09:45;;;;;;;;;;;9.90;99.90;;;;;;5111872;28;20022;-84
2021/12/20 13:12:19;;;;;;;;;;;10.00;99.90;;;;;;5105259;27;19923;-87
2021/12/20 13:15:41;;;;;;;;;;;10.00;99.90;;;;;;5117451;27;19931;-84
2021/12/20 13:17:45;;;;;;;;;;;9.80;99.90;;;;;;5108432;28;19980;-86
2021/12/20 13:20:24;;;;;;;;;;;9.50;99.90;;;;;;5114825;27;20032;-84
2021/12/20 13:22:53;;;;;;;;;;;9.40;99.90;;;;;;5114039;27;19924;-84
2021/12/20 13:25:38;;;;;;;;;;;9.20;99.90;;;;;;5121011;27;19991;-88
2021/12/20 13:28:05;;;;;;;;;;;9.10;99.90;;;;;;5112814;27;20257;-87
2021/12/20 13:30:31;;;;;;;;;;;9.20;99.90;;;;;;5102462;28;19924;-85
2021/12/20 13:32:57;;;;;;;;;;;9.30;99.90;;;;;;5094489;28;19934;-88
2021/12/20 13:35:23;;;;;;;;;;;9.30;99.90;;;;;;5112924;27;20257;-86
2021/12/20 13:37:50;;;;;;;;;;;9.20;99.90;;;;;;5113465;27;19927;-87
2021/12/20 13:40:16;;;;;;;;;;;9.00;99.90;;;;;;5100365;27;20363;-83
2021/12/20 13:42:52;;;;;;;;;;;8.80;99.90;;;;;;5116589;27;19999;-86
2021/12/20 13:45:18;;;;;;;;;;;8.60;99.90;;;;;;5116221;27;19997;-85
2021/12/20 13:47:44;;;;;;;;;;;8.40;99.90;;;;;;5125710;27;20384;-86
2021/12/20 13:50:17;;;;;;;;;;;8.30;99.90;;;;;;5079525;28;20361;-85
2021/12/20 13:52:46;;;;;;;;;;;8.20;99.90;;;;;;5113712;27;19928;-85
2021/12/20 13:55:12;;;;;;;;;;;8.10;99.90;;;;;;5107445;28;19966;-85
2021/12/20 13:57:38;;;;;;;;;;;8.10;99.90;;;;;;5115003;27;19924;-86
2021/12/20 14:00:06;;;;;;;;;;;8.00;99.90;;;;;;5117244;27;19973;-86
2021/12/20 14:02:36;;;;;;;;;;;7.90;99.90;;;;;;5101872;28;19924;-85
2021/12/20 14:05:10;;;;;;;;;;;7.90;99.90;;;;;;5113475;27;20384;-85
2021/12/20 14:07:39;;;;;;;;;;;7.80;99.90;;;;;;5109230;28;19935;-85
2021/12/20 14:10:13;;;;;;;;;;;7.70;99.90;;;;;;5123961;27;19977;-85
2021/12/20 14:12:52;;;;;;;;;;;7.70;99.90;;;;;;5116267;27;19975;-84
2021/12/20 14:15:36;;;;;;;;;;;7.60;99.90;;;;;;5134359;27;19923;-83
2021/12/20 14:18:02;;;;;;;;;;;7.50;99.90;;;;;;5116511;27;19977;-85
2021/12/20 14:20:38;;;;;;;;;;;7.50;99.90;;;;;;5115569;27;20359;-85
2021/12/20 14:23:06;;;;;;;;;;;7.50;99.90;;;;;;5114960;27;19928;-86
2021/12/20 14:25:31;;;;;;;;;;;7.40;99.90;;;;;;5116081;27;19931;-89
2021/12/20 14:28:00;;;;;;;;;;;7.30;99.90;;;;;;5132480;27;19923;-86
2021/12/20 14:30:25;;;;;;;;;;;7.30;99.90;;;;;;5115317;27;19971;-84
2021/12/20 14:32:51;;;;;;;;;;;7.20;99.90;;;;;;5094302;27;20343;-85
2021/12/20 14:35:26;;;;;;;;;;;7.20;99.90;;;;;;5109018;28;19938;-86
2021/12/20 14:37:53;;;;;;;;;;;7.10;99.90;;;;;;5108566;27;19923;-85
2021/12/20 14:40:38;;;;;;;;;;;7.00;99.90;;;;;;5127161;27;19930;-87
2021/12/20 14:43:11;;;;;;;;;;;7.00;99.90;;;;;;5102977;28;20440;-85
2021/12/20 14:45:37;;;;;;;;;;;6.90;99.90;;;;;;5123944;27;19976;-85
2021/12/20 14:48:16;;;;;;;;;;;6.90;99.90;;;;;;5129315;27;20363;-84
2021/12/20 14:50:46;;;;;;;;;;;6.80;99.90;;;;;;5109170;28;20002;-85